createdAt,value
2018-09-03T00:01:17.714Z,23.76
2018-09-03T00:03:44.064Z,23.64
2018-09-03T00:06:10.379Z,23.55
2018-09-03T00:08:36.738Z,23.45
2018-09-03T00:11:03.057Z,23.35
2018-09-03T00:13:29.416Z,23.49
2018-09-03T00:15:55.743Z,23.50
2018-09-03T00:18:22.052Z,23.56
2018-09-03T00:20:48.383Z,23.61
2018-09-03T00:23:14.724Z,23.54
2018-09-03T00:25:41.090Z,23.39
2018-09-03T00:28:07.410Z,23.30
2018-09-03T00:30:33.823Z,23.36
2018-09-03T00:33:00.115Z,23.28
2018-09-03T00:35:28.157Z,23.19
2018-09-03T00:37:54.533Z,23.20
2018-09-03T00:40:20.855Z,23.18
2018-09-03T00:42:47.201Z,23.19
2018-09-03T00:45:13.530Z,23.18
2018-09-03T00:47:39.910Z,23.20
2018-09-03T00:50:06.227Z,23.08
2018-09-03T00:52:32.560Z,23.06
2018-09-03T00:54:58.873Z,23.15
2018-09-03T00:57:25.195Z,23.01
2018-09-03T00:59:51.513Z,22.87
2018-09-03T01:02:17.836Z,22.81
2018-09-03T01:04:44.147Z,22.80
2018-09-03T01:07:10.470Z,22.74
2018-09-03T01:09:36.783Z,22.86
2018-09-03T01:12:03.101Z,22.94
2018-09-03T01:14:29.413Z,22.91
2018-09-03T01:16:55.736Z,23.02
2018-09-03T01:19:22.090Z,22.93
2018-09-03T01:21:48.430Z,22.91
2018-09-03T01:24:14.754Z,23.01
2018-09-03T01:26:41.070Z,23.04
2018-09-03T01:29:07.385Z,23.00
2018-09-03T01:31:33.754Z,23.08
2018-09-03T01:34:00.067Z,22.95
2018-09-03T01:36:26.397Z,22.90
2018-09-03T01:38:52.755Z,22.80
2018-09-03T01:41:19.081Z,22.84
2018-09-03T01:43:45.402Z,22.82
2018-09-03T01:46:11.748Z,22.85
2018-09-03T01:48:38.065Z,22.92
2018-09-03T01:51:04.382Z,22.82
2018-09-03T01:53:30.716Z,22.81
2018-09-03T01:55:57.030Z,22.77
2018-09-03T01:58:23.345Z,22.76
2018-09-03T02:00:49.664Z,22.74
2018-09-03T02:03:15.976Z,22.70
2018-09-03T02:05:42.288Z,22.72
2018-09-03T02:08:08.636Z,22.72
2018-09-03T02:10:34.966Z,22.73
2018-09-03T02:13:01.301Z,22.76
2018-09-03T02:15:27.673Z,22.79
2018-09-03T02:17:54.020Z,22.74
2018-09-03T02:20:20.388Z,22.59
2018-09-03T02:22:46.735Z,22.60
2018-09-03T02:25:13.058Z,22.65
2018-09-03T02:27:39.395Z,22.61
2018-09-03T02:30:05.760Z,22.54
2018-09-03T02:32:32.086Z,22.37
2018-09-03T02:34:58.444Z,22.36
2018-09-03T02:37:24.791Z,22.33
2018-09-03T02:39:51.158Z,22.39
2018-09-03T02:42:17.513Z,22.44
2018-09-03T02:44:43.833Z,22.30
2018-09-03T02:47:10.184Z,22.20
2018-09-03T02:49:36.504Z,22.26
2018-09-03T02:52:02.868Z,22.28
2018-09-03T02:54:29.189Z,22.33
2018-09-03T02:56:55.560Z,22.33
2018-09-03T02:59:21.872Z,22.23
2018-09-03T03:01:48.191Z,22.16
2018-09-03T03:04:14.508Z,22.14
2018-09-03T03:06:40.865Z,22.19
2018-09-03T03:09:07.187Z,22.20
2018-09-03T03:11:33.549Z,22.16
2018-09-03T03:13:59.818Z,22.25
2018-09-03T03:16:26.131Z,22.23
2018-09-03T03:18:52.452Z,22.27
2018-09-03T03:21:18.763Z,22.26
2018-09-03T03:23:45.076Z,22.23
2018-09-03T03:26:11.435Z,22.19
2018-09-03T03:28:37.752Z,22.15
2018-09-03T03:31:04.063Z,22.07
2018-09-03T03:33:30.371Z,21.98
2018-09-03T03:35:56.693Z,21.91
2018-09-03T03:38:23.015Z,21.92
2018-09-03T03:40:49.353Z,21.85
2018-09-03T03:43:15.669Z,21.78
2018-09-03T03:45:41.975Z,21.84
2018-09-03T03:48:08.311Z,21.85
2018-09-03T03:50:34.632Z,21.85
2018-09-03T03:53:00.959Z,21.86
2018-09-03T03:55:27.271Z,21.86
2018-09-03T03:57:53.598Z,21.91
2018-09-03T04:00:19.922Z,21.90
2018-09-03T04:02:46.238Z,22.07
2018-09-03T04:05:12.557Z,22.16
2018-09-03T04:07:38.891Z,22.23
2018-09-03T04:10:05.226Z,22.21
2018-09-03T04:12:31.546Z,22.00
2018-09-03T04:14:57.868Z,21.84
2018-09-03T04:17:24.200Z,21.72
2018-09-03T04:19:50.523Z,21.69
2018-09-03T04:22:16.849Z,21.57
2018-09-03T04:24:43.201Z,21.46
2018-09-03T04:27:09.520Z,21.34
2018-09-03T04:29:35.851Z,21.33
2018-09-03T04:32:02.179Z,21.34
2018-09-03T04:34:28.494Z,21.41
2018-09-03T04:36:54.820Z,21.52
2018-09-03T04:39:21.173Z,21.65
2018-09-03T04:41:47.514Z,21.44
2018-09-03T04:44:13.833Z,21.39
2018-09-03T04:46:40.204Z,21.35
2018-09-03T04:49:06.519Z,21.45
2018-09-03T04:51:32.890Z,21.62
2018-09-03T04:53:59.214Z,21.69
2018-09-03T04:56:25.536Z,21.70
2018-09-03T04:58:51.851Z,21.70
2018-09-03T05:01:18.183Z,21.79
2018-09-03T05:03:44.522Z,21.89
2018-09-03T05:06:10.903Z,21.95
2018-09-03T05:08:37.174Z,22.01
2018-09-03T05:11:03.497Z,22.02
2018-09-03T05:13:29.827Z,22.07
2018-09-03T05:15:56.151Z,22.10
2018-09-03T05:18:22.488Z,22.14
2018-09-03T05:20:48.838Z,22.16
2018-09-03T05:23:15.174Z,22.26
2018-09-03T05:25:41.500Z,22.34
2018-09-03T05:28:07.842Z,22.41
2018-09-03T05:30:34.180Z,22.47
2018-09-03T05:33:00.517Z,22.53
2018-09-03T05:35:26.884Z,22.60
2018-09-03T05:37:53.170Z,22.67
2018-09-03T05:40:19.494Z,22.73
2018-09-03T05:42:45.820Z,22.75
2018-09-03T05:45:12.196Z,22.77
2018-09-03T05:47:38.480Z,22.75
2018-09-03T05:50:04.815Z,22.73
2018-09-03T05:52:31.119Z,22.76
2018-09-03T05:54:57.466Z,22.78
2018-09-03T05:57:23.795Z,22.80
2018-09-03T05:59:50.119Z,22.79
2018-09-03T06:02:16.461Z,22.79
2018-09-03T06:04:42.778Z,22.86
2018-09-03T06:07:09.131Z,22.90
2018-09-03T06:09:35.420Z,22.95
2018-09-03T06:12:01.732Z,22.96
2018-09-03T06:14:28.076Z,23.00
2018-09-03T06:16:54.382Z,23.02
2018-09-03T06:19:20.729Z,23.02
2018-09-03T06:21:47.061Z,23.02
2018-09-03T06:24:13.446Z,23.03
2018-09-03T06:26:39.814Z,23.03
2018-09-03T06:29:06.106Z,23.05
2018-09-03T06:31:32.435Z,23.07
2018-09-03T06:33:58.769Z,23.09
2018-09-03T06:36:25.101Z,23.10
2018-09-03T06:38:51.449Z,23.12
2018-09-03T06:41:17.773Z,23.15
2018-09-03T06:43:44.104Z,23.24
2018-09-03T06:46:10.421Z,23.45
2018-09-03T06:48:36.747Z,23.70
2018-09-03T06:51:03.066Z,23.93
2018-09-03T06:53:29.453Z,24.06
2018-09-03T06:55:55.728Z,24.04
2018-09-03T06:58:22.056Z,24.03
2018-09-03T07:00:48.404Z,24.08
2018-09-03T07:03:14.739Z,24.07
2018-09-03T07:05:41.076Z,24.25
2018-09-03T07:08:07.400Z,24.44
2018-09-03T07:10:33.731Z,24.51
2018-09-03T07:13:00.093Z,24.51
2018-09-03T07:15:26.430Z,24.54
2018-09-03T07:17:52.752Z,24.54
2018-09-03T07:20:19.131Z,24.53
2018-09-03T07:22:45.410Z,24.52
2018-09-03T07:25:11.741Z,24.71
2018-09-03T07:27:38.074Z,24.74
2018-09-03T07:30:04.394Z,24.72
2018-09-03T07:32:30.720Z,24.67
2018-09-03T07:34:57.057Z,24.62
2018-09-03T07:37:23.457Z,24.61
2018-09-03T07:39:49.803Z,24.60
2018-09-03T07:42:16.118Z,24.59
2018-09-03T07:44:42.441Z,24.58
2018-09-03T07:47:08.770Z,24.61
2018-09-03T07:49:35.098Z,24.63
2018-09-03T07:52:01.428Z,24.67
2018-09-03T07:54:27.822Z,24.84
2018-09-03T07:56:54.136Z,25.02
2018-09-03T07:59:20.465Z,25.25
2018-09-03T08:01:46.783Z,25.48
2018-09-03T08:04:13.139Z,25.51
2018-09-03T08:06:39.430Z,25.47
2018-09-03T08:09:05.755Z,25.44
2018-09-03T08:11:32.083Z,25.45
2018-09-03T08:13:58.391Z,25.46
2018-09-03T08:16:24.705Z,25.46
2018-09-03T08:18:51.055Z,25.54
2018-09-03T08:21:17.382Z,25.78
2018-09-03T08:23:43.710Z,26.06
2018-09-03T08:26:10.088Z,26.32
2018-09-03T08:28:36.412Z,26.58
2018-09-03T08:31:02.793Z,26.81
2018-09-03T08:33:29.139Z,26.96
2018-09-03T08:35:55.479Z,27.09
2018-09-03T08:38:21.825Z,27.12
2018-09-03T08:40:48.160Z,27.20
2018-09-03T08:43:14.487Z,27.31
2018-09-03T08:45:40.805Z,27.46
2018-09-03T08:48:07.150Z,27.58
2018-09-03T08:50:33.463Z,27.72
2018-09-03T08:52:59.799Z,27.84
2018-09-03T08:55:26.128Z,27.94
2018-09-03T08:57:52.451Z,27.99
2018-09-03T09:00:18.765Z,27.99
2018-09-03T09:02:45.105Z,28.02
2018-09-03T09:05:11.428Z,28.01
2018-09-03T09:07:37.778Z,28.05
2018-09-03T09:10:04.122Z,28.11
2018-09-03T09:12:30.435Z,28.16
2018-09-03T09:14:56.748Z,28.22
2018-09-03T09:17:23.080Z,28.31
2018-09-03T09:19:49.392Z,28.44
2018-09-03T09:22:15.714Z,28.59
2018-09-03T09:24:42.043Z,28.69
2018-09-03T09:27:08.395Z,28.77
2018-09-03T09:29:34.713Z,28.83
2018-09-03T09:32:01.024Z,28.87
2018-09-03T09:34:27.332Z,28.95
2018-09-03T09:36:53.666Z,29.06
2018-09-03T09:39:19.968Z,29.16
2018-09-03T09:41:46.276Z,29.28
2018-09-03T09:44:12.592Z,29.32
2018-09-03T09:46:38.903Z,29.30
2018-09-03T09:49:05.239Z,29.27
2018-09-03T09:51:31.560Z,29.27
2018-09-03T09:53:57.864Z,29.33
2018-09-03T09:56:24.194Z,29.44
2018-09-03T09:58:50.504Z,29.55
2018-09-03T10:01:16.821Z,29.68
2018-09-03T10:03:43.146Z,29.77
2018-09-03T10:06:09.460Z,29.81
2018-09-03T10:08:35.776Z,29.91
2018-09-03T10:11:02.102Z,29.94
2018-09-03T10:13:28.437Z,30.03
2018-09-03T10:15:54.760Z,30.15
2018-09-03T10:18:21.072Z,30.28
2018-09-03T10:20:47.466Z,30.35
2018-09-03T10:23:13.750Z,30.41
2018-09-03T10:25:40.101Z,30.51
2018-09-03T10:28:06.413Z,30.59
2018-09-03T10:30:32.723Z,30.68
2018-09-03T10:32:59.050Z,30.66
2018-09-03T10:35:25.360Z,30.69
2018-09-03T10:37:51.688Z,30.77
2018-09-03T10:40:18.015Z,30.84
2018-09-03T10:42:44.347Z,30.83
2018-09-03T10:45:10.668Z,30.70
2018-09-03T10:47:37.061Z,30.54
2018-09-03T10:50:03.320Z,30.40
2018-09-03T10:52:29.629Z,30.23
2018-09-03T10:54:55.984Z,30.07
2018-09-03T10:57:22.319Z,29.94
2018-09-03T10:59:48.644Z,29.83
2018-09-03T11:02:14.960Z,29.73
2018-09-03T11:04:41.289Z,29.64
2018-09-03T11:07:07.604Z,29.55
2018-09-03T11:09:33.912Z,29.46
2018-09-03T11:12:00.228Z,29.38
2018-09-03T11:14:26.549Z,29.35
2018-09-03T11:16:52.875Z,29.32
2018-09-03T11:19:19.188Z,29.27
2018-09-03T11:21:45.513Z,29.22
2018-09-03T11:24:11.820Z,29.18
2018-09-03T11:26:38.198Z,29.12
2018-09-03T11:29:04.511Z,29.07
2018-09-03T11:31:30.835Z,29.05
2018-09-03T11:33:57.170Z,29.04
2018-09-03T11:36:23.495Z,29.04
2018-09-03T11:38:49.818Z,29.02
2018-09-03T11:41:16.127Z,28.97
2018-09-03T11:43:42.438Z,28.94
2018-09-03T11:46:08.747Z,28.92
2018-09-03T11:48:35.059Z,28.89
2018-09-03T11:51:01.374Z,28.85
2018-09-03T11:53:27.686Z,28.81
2018-09-03T11:55:54.000Z,28.77
2018-09-03T11:58:20.328Z,28.75
2018-09-03T12:00:46.660Z,28.72
2018-09-03T12:03:12.967Z,28.66
2018-09-03T12:05:39.294Z,28.57
2018-09-03T12:08:05.621Z,28.43
2018-09-03T12:10:31.931Z,28.33
2018-09-03T12:12:58.259Z,28.24
2018-09-03T12:15:24.591Z,28.13
2018-09-03T12:17:50.932Z,27.98
2018-09-03T12:20:17.254Z,27.85
2018-09-03T12:22:43.586Z,27.73
2018-09-03T12:25:09.915Z,27.65
2018-09-03T12:27:36.296Z,27.59
2018-09-03T12:30:05.828Z,27.57
2018-09-03T12:32:32.173Z,27.48
2018-09-03T12:34:58.526Z,27.39
2018-09-03T12:37:24.851Z,27.35
2018-09-03T12:39:51.215Z,27.35
2018-09-03T12:42:17.540Z,27.32
2018-09-03T12:44:43.918Z,27.27
2018-09-03T12:47:10.244Z,27.20
2018-09-03T12:49:36.571Z,27.14
2018-09-03T12:52:02.901Z,27.09
2018-09-03T12:54:29.282Z,27.04
2018-09-03T12:56:55.654Z,27.00
2018-09-03T12:59:21.985Z,26.98
2018-09-03T13:01:48.327Z,26.99
2018-09-03T13:04:14.709Z,26.98
2018-09-03T13:06:40.979Z,26.96
2018-09-03T13:09:07.301Z,26.95
2018-09-03T13:11:33.662Z,26.91
2018-09-03T13:13:59.984Z,26.86
2018-09-03T13:16:26.345Z,26.85
2018-09-03T13:18:52.687Z,26.89
2018-09-03T13:21:19.007Z,26.93
2018-09-03T13:23:45.359Z,26.93
2018-09-03T13:26:11.683Z,26.97
2018-09-03T13:28:38.061Z,27.00
2018-09-03T13:31:04.395Z,27.05
2018-09-03T13:33:30.726Z,27.05
2018-09-03T13:35:57.110Z,27.10
2018-09-03T13:38:23.364Z,27.08
2018-09-03T13:40:49.675Z,27.07
2018-09-03T13:43:16.013Z,27.07
2018-09-03T13:45:42.350Z,27.05
2018-09-03T13:48:08.747Z,27.07
2018-09-03T13:50:35.028Z,27.06
2018-09-03T13:53:01.353Z,27.02
2018-09-03T13:55:27.695Z,26.98
2018-09-03T13:57:54.032Z,26.94
2018-09-03T14:00:20.340Z,26.90
2018-09-03T14:02:46.673Z,26.89
2018-09-03T14:05:12.999Z,26.88
2018-09-03T14:07:39.306Z,26.87
2018-09-03T14:10:05.681Z,26.94
2018-09-03T14:12:31.953Z,27.02
2018-09-03T14:14:58.275Z,27.03
2018-09-03T14:17:24.590Z,27.07
2018-09-03T14:19:50.915Z,27.17
2018-09-03T14:22:17.247Z,27.24
2018-09-03T14:24:43.536Z,27.28
2018-09-03T14:27:09.858Z,27.31
2018-09-03T14:29:36.184Z,27.37
2018-09-03T14:32:02.529Z,27.42
2018-09-03T14:34:28.848Z,27.46
2018-09-03T14:36:55.187Z,27.48
2018-09-03T14:39:21.504Z,27.51
2018-09-03T14:41:47.828Z,27.52
2018-09-03T14:44:14.175Z,27.52
2018-09-03T14:46:40.519Z,27.53
2018-09-03T14:49:06.852Z,27.52
2018-09-03T14:51:33.236Z,27.52
2018-09-03T14:53:59.551Z,27.50
2018-09-03T14:56:25.903Z,27.50
2018-09-03T14:58:52.229Z,27.49
2018-09-03T15:01:18.641Z,27.50
2018-09-03T15:03:44.957Z,27.48
2018-09-03T15:06:11.287Z,27.51
2018-09-03T15:08:37.620Z,27.48
2018-09-03T15:11:03.944Z,27.46
2018-09-03T15:13:30.315Z,27.43
2018-09-03T15:15:56.624Z,27.37
2018-09-03T15:18:22.944Z,27.30
2018-09-03T15:20:49.312Z,27.25
2018-09-03T15:23:15.651Z,27.27
2018-09-03T15:25:41.929Z,27.18
2018-09-03T15:28:08.253Z,27.14
2018-09-03T15:30:34.591Z,27.15
2018-09-03T15:33:00.904Z,27.20
2018-09-03T15:35:27.241Z,27.25
2018-09-03T15:37:53.560Z,27.26
2018-09-03T15:40:19.888Z,27.27
2018-09-03T15:42:46.235Z,27.26
2018-09-03T15:45:12.561Z,27.21
2018-09-03T15:47:38.893Z,27.16
2018-09-03T15:50:05.249Z,27.14
2018-09-03T15:52:31.575Z,27.06
2018-09-03T15:54:57.888Z,27.02
2018-09-03T15:57:24.229Z,27.01
2018-09-03T15:59:50.559Z,27.04
2018-09-03T16:02:16.887Z,27.08
2018-09-03T16:04:43.214Z,27.13
2018-09-03T16:07:09.538Z,27.17
2018-09-03T16:09:35.863Z,27.20
2018-09-03T16:12:02.194Z,27.21
2018-09-03T16:14:28.523Z,27.21
2018-09-03T16:16:54.852Z,27.21
2018-09-03T16:19:21.199Z,27.20
2018-09-03T16:21:47.508Z,27.20
2018-09-03T16:24:13.856Z,27.17
2018-09-03T16:26:40.168Z,27.16
2018-09-03T16:29:06.492Z,27.10
2018-09-03T16:31:32.819Z,27.03
2018-09-03T16:33:59.146Z,27.02
2018-09-03T16:36:25.460Z,26.93
2018-09-03T16:38:51.869Z,26.86
2018-09-03T16:41:18.122Z,26.75
2018-09-03T16:43:44.432Z,26.68
2018-09-03T16:46:10.749Z,26.63
2018-09-03T16:48:37.079Z,26.67
2018-09-03T16:51:03.410Z,26.75
2018-09-03T16:53:29.760Z,26.75
2018-09-03T16:55:56.087Z,26.78
2018-09-03T16:58:22.454Z,26.79
2018-09-03T17:00:48.832Z,26.81
2018-09-03T17:03:15.143Z,26.83
2018-09-03T17:05:41.475Z,26.76
2018-09-03T17:08:07.934Z,26.67
2018-09-03T17:10:34.208Z,26.65
2018-09-03T17:13:00.534Z,26.57
2018-09-03T17:15:26.844Z,26.51
2018-09-03T17:17:53.156Z,26.47
2018-09-03T17:20:19.550Z,26.42
2018-09-03T17:22:45.786Z,26.44
2018-09-03T17:25:12.160Z,26.45
2018-09-03T17:27:38.480Z,26.42
2018-09-03T17:30:04.792Z,26.37
2018-09-03T17:32:31.134Z,26.40
2018-09-03T17:34:57.453Z,26.50
2018-09-03T17:37:23.777Z,26.55
2018-09-03T17:39:50.091Z,26.43
2018-09-03T17:42:16.426Z,26.29
2018-09-03T17:44:42.760Z,26.31
2018-09-03T17:47:09.086Z,26.41
2018-09-03T17:49:35.446Z,26.49
2018-09-03T17:52:01.771Z,26.55
2018-09-03T17:54:28.095Z,26.58
2018-09-03T17:56:54.432Z,26.59
2018-09-03T17:59:20.741Z,26.51
2018-09-03T18:01:47.069Z,26.49
2018-09-03T18:04:13.382Z,26.53
2018-09-03T18:06:39.710Z,26.51
2018-09-03T18:09:06.027Z,26.49
2018-09-03T18:11:32.389Z,26.50
2018-09-03T18:13:58.776Z,26.52
2018-09-03T18:16:25.193Z,26.54
2018-09-03T18:18:51.453Z,26.46
2018-09-03T18:21:17.777Z,26.46
2018-09-03T18:23:44.105Z,26.48
2018-09-03T18:26:10.417Z,26.50
2018-09-03T18:28:36.734Z,26.49
2018-09-03T18:31:04.714Z,26.50
2018-09-03T18:33:29.380Z,26.51
2018-09-03T18:35:55.730Z,26.51
2018-09-03T18:38:22.023Z,26.50
2018-09-03T18:40:48.352Z,26.49
2018-09-03T18:43:14.677Z,26.38
2018-09-03T18:45:41.012Z,26.09
2018-09-03T18:48:07.337Z,25.81
2018-09-03T18:50:33.651Z,25.54
2018-09-03T18:52:59.959Z,25.56
2018-09-03T18:55:26.288Z,25.79
2018-09-03T18:57:52.619Z,26.00
2018-09-03T19:00:18.961Z,26.13
2018-09-03T19:02:45.245Z,26.19
2018-09-03T19:05:11.555Z,26.19
2018-09-03T19:07:37.923Z,26.16
2018-09-03T19:10:04.247Z,26.21
2018-09-03T19:12:30.582Z,26.27
2018-09-03T19:14:56.895Z,26.33
2018-09-03T19:17:23.263Z,26.34
2018-09-03T19:19:49.572Z,26.33
2018-09-03T19:22:15.909Z,26.30
2018-09-03T19:24:42.221Z,26.28
2018-09-03T19:27:08.550Z,26.24
2018-09-03T19:29:34.879Z,26.19
2018-09-03T19:32:01.198Z,26.20
2018-09-03T19:34:27.531Z,26.18
2018-09-03T19:36:53.881Z,26.14
2018-09-03T19:39:20.227Z,26.12
2018-09-03T19:41:46.577Z,26.13
2018-09-03T19:44:12.904Z,26.09
2018-09-03T19:46:39.216Z,26.08
2018-09-03T19:49:05.531Z,26.06
2018-09-03T19:51:31.899Z,26.03
2018-09-03T19:53:58.228Z,26.06
2018-09-03T19:56:24.555Z,26.04
2018-09-03T19:58:50.927Z,26.02
2018-09-03T20:01:17.256Z,25.99
2018-09-03T20:03:43.626Z,25.97
2018-09-03T20:06:10.040Z,25.96
2018-09-03T20:08:36.305Z,25.94
2018-09-03T20:11:02.630Z,25.92
2018-09-03T20:13:28.951Z,25.91
2018-09-03T20:15:55.250Z,25.90
2018-09-03T20:18:21.566Z,25.88
2018-09-03T20:20:47.889Z,25.86
2018-09-03T20:23:14.262Z,25.76
2018-09-03T20:25:40.552Z,25.62
2018-09-03T20:28:06.880Z,25.51
2018-09-03T20:30:33.252Z,25.44
2018-09-03T20:32:59.514Z,25.54
2018-09-03T20:35:25.834Z,25.60
2018-09-03T20:37:52.139Z,25.61
2018-09-03T20:40:18.493Z,25.61
2018-09-03T20:42:44.858Z,25.60
2018-09-03T20:45:11.126Z,25.64
2018-09-03T20:47:37.455Z,25.64
2018-09-03T20:50:03.770Z,25.63
2018-09-03T20:52:30.085Z,25.62
2018-09-03T20:54:56.410Z,25.59
2018-09-03T20:57:22.743Z,25.55
2018-09-03T20:59:49.142Z,25.53
2018-09-03T21:02:15.475Z,25.51
2018-09-03T21:04:41.814Z,25.38
2018-09-03T21:07:08.140Z,25.28
2018-09-03T21:09:34.476Z,25.25
2018-09-03T21:12:00.822Z,25.19
2018-09-03T21:14:28.302Z,25.10
2018-09-03T21:16:54.607Z,25.01
2018-09-03T21:19:21.001Z,24.83
2018-09-03T21:21:49.821Z,24.78
2018-09-03T21:24:16.246Z,24.58
2018-09-03T21:26:42.601Z,24.40
2018-09-03T21:29:09.015Z,24.26
2018-09-03T21:31:35.385Z,24.22
2018-09-03T21:34:01.723Z,24.07
2018-09-03T21:36:28.069Z,23.95
2018-09-03T21:38:54.430Z,23.95
2018-09-03T21:41:20.748Z,23.90
2018-09-03T21:43:47.097Z,23.79
2018-09-03T21:46:13.414Z,23.72
2018-09-03T21:48:39.741Z,23.73
2018-09-03T21:51:06.059Z,23.73
2018-09-03T21:53:32.377Z,23.77
2018-09-03T21:55:58.699Z,23.73
2018-09-03T21:58:25.053Z,23.63
2018-09-03T22:00:51.382Z,23.55
2018-09-03T22:03:17.713Z,23.55
2018-09-03T22:05:44.032Z,23.54
2018-09-03T22:08:10.356Z,23.52
2018-09-03T22:10:36.669Z,23.57
2018-09-03T22:13:03.047Z,23.61
2018-09-03T22:15:29.355Z,23.72
2018-09-03T22:17:55.663Z,23.86
2018-09-03T22:20:21.985Z,23.86
2018-09-03T22:22:48.304Z,23.71
2018-09-03T22:25:14.676Z,23.56
2018-09-03T22:27:41.003Z,23.46
2018-09-03T22:30:07.359Z,23.29
2018-09-03T22:32:33.725Z,23.19
2018-09-03T22:35:00.081Z,23.17
2018-09-03T22:37:26.395Z,23.13
2018-09-03T22:39:52.759Z,23.22
2018-09-03T22:42:19.070Z,23.14
2018-09-03T22:44:45.391Z,23.06
2018-09-03T22:47:11.704Z,23.09
2018-09-03T22:49:38.090Z,23.21
2018-09-03T22:52:04.411Z,23.28
2018-09-03T22:54:30.735Z,23.45
2018-09-03T22:56:57.079Z,23.46
2018-09-03T22:59:23.427Z,23.33
2018-09-03T23:01:49.796Z,23.32
2018-09-03T23:04:16.179Z,23.29
2018-09-03T23:06:42.502Z,23.27
2018-09-03T23:09:08.832Z,23.29
2018-09-03T23:11:35.143Z,23.17
2018-09-03T23:14:01.495Z,22.98
2018-09-03T23:16:27.818Z,22.96
2018-09-03T23:18:54.169Z,22.91
2018-09-03T23:21:20.492Z,22.94
2018-09-03T23:23:46.837Z,22.87
2018-09-03T23:26:13.201Z,22.69
2018-09-03T23:28:39.554Z,22.73
2018-09-03T23:31:05.884Z,22.88
2018-09-03T23:33:32.202Z,22.92
2018-09-03T23:35:58.525Z,23.10
2018-09-03T23:38:24.853Z,23.22
2018-09-03T23:40:51.182Z,23.32
2018-09-03T23:43:17.543Z,23.23
2018-09-03T23:45:43.906Z,23.05
2018-09-03T23:48:10.194Z,22.96
2018-09-03T23:50:36.581Z,22.84
2018-09-03T23:53:02.925Z,22.79
2018-09-03T23:55:29.292Z,22.74
2018-09-03T23:57:55.642Z,22.71
